createdAt,value
2022-12-08T00:00:37.385Z,86.10
2022-12-08T00:05:58.247Z,86.26
2022-12-08T00:11:00.042Z,86.28
2022-12-08T00:16:02.204Z,86.67
2022-12-08T00:21:04.372Z,86.53
2022-12-08T00:26:07.142Z,86.49
2022-12-08T00:31:11.717Z,86.61
2022-12-08T00:36:15.047Z,86.64
2022-12-08T00:41:39.922Z,86.69
2022-12-08T00:46:42.003Z,87.25
2022-12-08T00:51:44.944Z,87.82
2022-12-08T00:56:46.741Z,87.14
2022-12-08T01:01:49.025Z,87.05
2022-12-08T01:06:50.957Z,86.99
2022-12-08T01:11:52.762Z,86.66
2022-12-08T01:16:54.638Z,86.99
2022-12-08T01:21:56.461Z,86.33
2022-12-08T01:26:58.248Z,86.70
2022-12-08T01:32:00.069Z,86.76
2022-12-08T01:37:01.813Z,86.65
2022-12-08T01:42:03.658Z,86.29
2022-12-08T01:47:05.702Z,86.57
2022-12-08T01:52:13.592Z,86.50
2022-12-08T01:57:24.356Z,86.16
2022-12-08T02:02:31.487Z,86.19
2022-12-08T02:07:34.594Z,85.80
2022-12-08T02:12:36.363Z,86.53
2022-12-08T02:17:38.045Z,86.86
2022-12-08T02:23:03.515Z,86.49
2022-12-08T02:28:11.348Z,86.30
2022-12-08T02:33:37.932Z,86.21
2022-12-08T02:39:01.088Z,85.81
2022-12-08T02:44:29.046Z,86.15
2022-12-08T02:49:35.367Z,85.92
2022-12-08T02:54:41.970Z,85.69
2022-12-08T03:00:01.571Z,86.49
2022-12-08T03:05:16.136Z,86.18
2022-12-08T03:10:24.657Z,85.97
2022-12-08T03:15:27.689Z,86.08
2022-12-08T03:20:31.243Z,86.27
2022-12-08T03:25:37.930Z,86.51
2022-12-08T03:30:43.150Z,85.86
2022-12-08T03:35:46.212Z,85.66
2022-12-08T03:41:10.536Z,85.48
2022-12-08T03:46:12.220Z,85.84
2022-12-08T03:51:14.712Z,85.46
2022-12-08T03:56:35.508Z,85.67
2022-12-08T04:01:37.437Z,85.62
2022-12-08T04:06:39.239Z,85.69
2022-12-08T04:11:40.918Z,86.14
2022-12-08T04:16:42.757Z,85.89
2022-12-08T04:21:44.453Z,85.65
2022-12-08T04:26:46.418Z,86.43
2022-12-08T04:31:48.189Z,85.49
2022-12-08T04:36:50.109Z,85.45
2022-12-08T04:41:51.863Z,85.78
2022-12-08T04:46:53.694Z,85.31
2022-12-08T04:51:55.455Z,85.18
2022-12-08T04:56:57.266Z,85.94
2022-12-08T05:01:59.153Z,85.62
2022-12-08T05:07:01.097Z,87.11
2022-12-08T05:12:02.851Z,87.57
2022-12-08T05:17:09.331Z,87.35
2022-12-08T05:22:11.659Z,88.15
2022-12-08T05:27:13.499Z,87.25
2022-12-08T05:32:15.303Z,86.85
2022-12-08T05:37:17.235Z,86.96
2022-12-08T05:42:24.373Z,86.03
2022-12-08T05:47:28.112Z,85.89
2022-12-08T05:52:32.385Z,85.59
2022-12-08T05:57:34.075Z,86.02
2022-12-08T06:02:36.002Z,86.44
2022-12-08T06:07:38.100Z,85.21
2022-12-08T06:12:40.509Z,84.67
2022-12-08T06:17:42.269Z,84.39
2022-12-08T06:22:43.983Z,84.45
2022-12-08T06:27:45.738Z,84.54
2022-12-08T06:32:47.546Z,84.23
2022-12-08T06:37:51.569Z,84.11
2022-12-08T06:42:53.295Z,84.37
2022-12-08T06:47:54.967Z,84.07
2022-12-08T06:53:04.901Z,84.12
2022-12-08T06:58:07.209Z,83.73
2022-12-08T07:03:10.542Z,83.88
2022-12-08T07:08:12.483Z,84.07
2022-12-08T07:13:14.330Z,83.86
2022-12-08T07:18:16.068Z,84.13
2022-12-08T07:23:17.796Z,84.04
2022-12-08T07:28:19.464Z,83.85
2022-12-08T07:33:21.152Z,83.27
2022-12-08T07:38:23.291Z,83.04
2022-12-08T07:43:25.084Z,83.05
2022-12-08T07:48:26.714Z,83.54
2022-12-08T07:53:28.554Z,84.36
2022-12-08T07:58:30.218Z,86.98
2022-12-08T08:03:32.073Z,91.14
2022-12-08T08:08:33.905Z,90.44
2022-12-08T08:13:35.975Z,89.93
2022-12-08T08:18:37.839Z,87.37
2022-12-08T08:23:39.540Z,89.23
2022-12-08T08:28:41.701Z,90.40
2022-12-08T08:33:43.449Z,86.36
2022-12-08T08:38:45.152Z,83.84
2022-12-08T08:43:46.925Z,85.96
2022-12-08T08:48:48.824Z,89.14
2022-12-08T08:53:50.784Z,90.17
2022-12-08T08:58:53.750Z,91.91
2022-12-08T09:03:56.516Z,93.11
2022-12-08T09:08:58.419Z,91.72
2022-12-08T09:14:00.176Z,85.03
2022-12-08T09:19:02.369Z,81.20
2022-12-08T09:24:04.166Z,79.02
2022-12-08T09:29:05.864Z,77.01
2022-12-08T09:34:07.563Z,76.14
2022-12-08T09:39:09.280Z,76.74
2022-12-08T09:44:29.322Z,77.09
2022-12-08T09:49:39.616Z,77.18
2022-12-08T09:54:41.251Z,76.35
2022-12-08T09:59:47.919Z,73.67
2022-12-08T10:04:50.221Z,74.31
2022-12-08T10:10:37.557Z,73.49
2022-12-08T10:16:29.792Z,71.77
2022-12-08T10:21:32.628Z,71.24
2022-12-08T10:26:34.492Z,71.58
2022-12-08T10:31:36.376Z,70.87
2022-12-08T10:36:49.583Z,70.19
2022-12-08T10:41:51.667Z,72.04
2022-12-08T10:46:53.522Z,70.85
2022-12-08T10:51:55.342Z,70.11
2022-12-08T10:56:57.486Z,69.38
2022-12-08T11:02:00.350Z,69.75
2022-12-08T11:07:06.119Z,70.87
2022-12-08T11:12:13.362Z,71.71
2022-12-08T11:17:23.514Z,70.99
2022-12-08T11:22:25.153Z,71.73
2022-12-08T11:27:27.345Z,73.12
2022-12-08T11:32:29.262Z,73.37
2022-12-08T11:37:41.785Z,72.81
2022-12-08T11:42:52.231Z,71.81
2022-12-08T11:48:01.893Z,75.16
2022-12-08T11:53:06.370Z,75.20
2022-12-08T11:58:26.923Z,72.64
2022-12-08T12:04:07.459Z,73.41
2022-12-08T12:09:22.725Z,74.94
2022-12-08T12:14:33.772Z,73.27
2022-12-08T12:19:39.826Z,74.08
2022-12-08T12:24:44.471Z,74.27
2022-12-08T12:29:56.716Z,74.26
2022-12-08T12:35:00.950Z,74.73
2022-12-08T12:40:17.424Z,76.12
2022-12-08T12:45:21.728Z,75.76
2022-12-08T12:50:33.097Z,76.42
2022-12-08T12:55:59.529Z,76.93
2022-12-08T13:01:10.129Z,77.18
2022-12-08T13:06:14.857Z,77.60
2022-12-08T13:11:18.404Z,78.65
2022-12-08T13:16:24.181Z,78.49
2022-12-08T13:21:33.367Z,78.87
2022-12-08T13:26:44.468Z,79.63
2022-12-08T13:31:51.931Z,79.62
2022-12-08T13:37:12.170Z,79.82
2022-12-08T13:42:24.990Z,80.19
2022-12-08T13:47:35.093Z,80.80
2022-12-08T13:58:02.799Z,80.60
2022-12-08T14:03:04.711Z,81.43
2022-12-08T14:08:36.365Z,81.79
2022-12-08T14:13:40.648Z,81.96
2022-12-08T14:18:42.381Z,81.61
2022-12-08T14:23:44.598Z,81.67
2022-12-08T14:28:46.481Z,82.32
2022-12-08T14:33:51.886Z,82.10
2022-12-08T14:38:58.213Z,82.87
2022-12-08T14:44:01.910Z,82.49
2022-12-08T14:49:04.239Z,83.19
2022-12-08T14:54:13.184Z,86.37
2022-12-08T14:59:27.097Z,90.29
2022-12-08T15:04:28.972Z,91.90
2022-12-08T15:09:44.420Z,92.79
2022-12-08T15:14:55.498Z,93.27
2022-12-08T15:19:58.997Z,93.55
2022-12-08T15:25:00.780Z,93.87
2022-12-08T15:30:02.563Z,94.09
2022-12-08T15:35:04.915Z,94.26
2022-12-08T15:40:11.078Z,94.41
2022-12-08T15:45:17.055Z,94.54
2022-12-08T15:50:21.475Z,94.64
2022-12-08T15:55:23.283Z,94.70
2022-12-08T16:00:51.847Z,94.75
2022-12-08T16:06:16.476Z,94.78
2022-12-08T16:12:04.094Z,94.84
2022-12-08T16:16:52.249Z,94.89
2022-12-08T16:32:50.287Z,95.03
2022-12-08T16:37:52.075Z,95.05
2022-12-08T16:42:53.997Z,95.09
2022-12-08T16:48:00.928Z,95.13
2022-12-08T16:53:06.147Z,95.15
2022-12-08T16:58:07.920Z,95.15
2022-12-08T17:03:13.487Z,95.22
2022-12-08T17:08:15.365Z,95.24
2022-12-08T17:13:17.671Z,95.27
2022-12-08T17:18:19.321Z,95.28
2022-12-08T17:23:21.051Z,95.31
2022-12-08T17:28:51.593Z,95.35
2022-12-08T17:33:45.917Z,95.39
2022-12-08T17:38:47.753Z,95.42
2022-12-08T17:43:49.430Z,95.45
2022-12-08T17:48:51.286Z,95.49
2022-12-08T17:53:53.045Z,95.49
2022-12-08T17:58:55.112Z,95.51
2022-12-08T18:03:58.170Z,95.50
2022-12-08T18:09:00.854Z,95.52
2022-12-08T18:14:09.869Z,95.53
2022-12-08T18:19:13.038Z,95.51
2022-12-08T18:24:22.078Z,95.51
2022-12-08T18:29:24.606Z,95.47
2022-12-08T18:34:26.343Z,95.43
2022-12-08T18:39:32.803Z,95.36
2022-12-08T18:44:34.484Z,95.20
2022-12-08T18:49:36.269Z,95.05
2022-12-08T18:55:08.650Z,94.97
2022-12-08T19:00:02.676Z,94.81
2022-12-08T19:05:06.193Z,94.41
2022-12-08T19:10:08.760Z,93.55
2022-12-08T19:15:11.090Z,92.50
2022-12-08T19:20:13.301Z,92.08
2022-12-08T19:25:15.038Z,92.14
2022-12-08T19:30:17.200Z,91.99
2022-12-08T19:35:19.044Z,92.28
2022-12-08T19:40:39.631Z,92.44
2022-12-08T19:45:41.408Z,92.74
2022-12-08T19:50:43.389Z,93.15
2022-12-08T19:55:45.200Z,93.20
2022-12-08T20:00:48.621Z,92.67
2022-12-08T20:05:53.085Z,92.22
2022-12-08T20:10:56.171Z,93.09
2022-12-08T20:15:58.573Z,92.73
2022-12-08T20:21:01.472Z,93.10
2022-12-08T20:26:08.804Z,93.17
2022-12-08T20:31:25.258Z,92.56
2022-12-08T20:36:27.561Z,92.48
2022-12-08T20:41:29.229Z,92.05
2022-12-08T20:46:31.184Z,91.40
2022-12-08T20:51:34.201Z,90.77
2022-12-08T20:56:36.560Z,90.94
2022-12-08T21:01:38.457Z,90.51
2022-12-08T21:06:40.318Z,89.24
2022-12-08T21:11:42.174Z,89.08
2022-12-08T21:16:44.104Z,89.79
2022-12-08T21:21:46.115Z,90.14
2022-12-08T21:26:48.161Z,89.07
2022-12-08T21:31:50.279Z,88.15
2022-12-08T21:36:53.204Z,87.98
2022-12-08T21:42:14.045Z,87.60
2022-12-08T21:47:16.001Z,87.42
2022-12-08T21:52:17.892Z,86.74
2022-12-08T21:57:20.365Z,86.40
2022-12-08T22:02:22.886Z,86.19
2022-12-08T22:07:25.070Z,86.02
2022-12-08T22:12:28.551Z,85.91
2022-12-08T22:17:30.349Z,86.18
2022-12-08T22:22:34.866Z,86.08
2022-12-08T22:27:37.006Z,86.67
2022-12-08T22:32:39.311Z,86.63
2022-12-08T22:37:41.111Z,86.45
2022-12-08T22:42:43.528Z,87.32
2022-12-08T22:47:45.352Z,86.86
2022-12-08T22:52:47.120Z,87.24
2022-12-08T22:57:48.890Z,86.41
2022-12-08T23:02:50.779Z,86.37
2022-12-08T23:07:52.582Z,85.61
2022-12-08T23:12:56.822Z,85.66
2022-12-08T23:18:01.360Z,85.68
2022-12-08T23:23:03.331Z,86.04
2022-12-08T23:28:05.415Z,86.29
2022-12-08T23:33:07.253Z,86.21
2022-12-08T23:38:09.118Z,87.01
2022-12-08T23:43:10.790Z,87.16
2022-12-08T23:48:12.450Z,86.37
2022-12-08T23:53:14.338Z,86.42
2022-12-08T23:58:16.197Z,86.67
